sensor_id;sensor_type;location;lat;lon;timestamp;temperature;humidity
16283;DHT22;8249;48.708;9.030;2023-06-14T00:00:21;13.60;95.30
16283;DHT22;8249;48.708;9.030;2023-06-14T00:02:48;13.50;95.40
16283;DHT22;8249;48.708;9.030;2023-06-14T00:05:15;13.40;95.50
16283;DHT22;8249;48.708;9.030;2023-06-14T00:07:43;13.40;95.20
16283;DHT22;8249;48.708;9.030;2023-06-14T00:10:14;13.40;95.30
16283;DHT22;8249;48.708;9.030;2023-06-14T00:12:42;13.30;95.50
16283;DHT22;8249;48.708;9.030;2023-06-14T00:15:09;13.30;96.30
16283;DHT22;8249;48.708;9.030;2023-06-14T00:17:36;13.20;97.10
16283;DHT22;8249;48.708;9.030;2023-06-14T00:20:05;13.20;97.60
16283;DHT22;8249;48.708;9.030;2023-06-14T00:22:33;13.10;98.20
16283;DHT22;8249;48.708;9.030;2023-06-14T00:25:04;13.10;98.10
16283;DHT22;8249;48.708;9.030;2023-06-14T00:27:31;13.00;97.80
16283;DHT22;8249;48.708;9.030;2023-06-14T00:29:58;13.00;97.50
16283;DHT22;8249;48.708;9.030;2023-06-14T00:32:26;13.00;98.00
16283;DHT22;8249;48.708;9.030;2023-06-14T00:34:55;12.90;97.40
16283;DHT22;8249;48.708;9.030;2023-06-14T00:37:22;12.80;98.20
16283;DHT22;8249;48.708;9.030;2023-06-14T00:39:49;12.90;98.80
16283;DHT22;8249;48.708;9.030;2023-06-14T00:42:26;12.80;99.30
16283;DHT22;8249;48.708;9.030;2023-06-14T00:44:54;12.80;99.80
16283;DHT22;8249;48.708;9.030;2023-06-14T00:47:21;12.80;99.90
16283;DHT22;8249;48.708;9.030;2023-06-14T00:49:50;12.70;99.90
16283;DHT22;8249;48.708;9.030;2023-06-14T00:52:18;12.60;99.90
16283;DHT22;8249;48.708;9.030;2023-06-14T00:54:45;12.60;99.90
16283;DHT22;8249;48.708;9.030;2023-06-14T00:57:13;12.70;99.90
16283;DHT22;8249;48.708;9.030;2023-06-14T00:59:43;12.70;99.90
16283;DHT22;8249;48.708;9.030;2023-06-14T01:02:11;12.70;99.80
16283;DHT22;8249;48.708;9.030;2023-06-14T01:04:41;12.70;99.30
16283;DHT22;8249;48.708;9.030;2023-06-14T01:07:15;12.60;99.30
16283;DHT22;8249;48.708;9.030;2023-06-14T01:09:51;12.60;99.30
16283;DHT22;8249;48.708;9.030;2023-06-14T01:12:24;12.50;99.90
16283;DHT22;8249;48.708;9.030;2023-06-14T01:14:57;12.50;99.90
16283;DHT22;8249;48.708;9.030;2023-06-14T01:17:27;12.50;99.90
16283;DHT22;8249;48.708;9.030;2023-06-14T01:19:58;12.50;99.90
16283;DHT22;8249;48.708;9.030;2023-06-14T01:22:26;12.50;99.90
16283;DHT22;8249;48.708;9.030;2023-06-14T01:24:56;12.50;99.90
16283;DHT22;8249;48.708;9.030;2023-06-14T01:27:23;12.40;99.90
16283;DHT22;8249;48.708;9.030;2023-06-14T01:29:54;12.30;99.90
16283;DHT22;8249;48.708;9.030;2023-06-14T01:32:23;12.30;99.90
16283;DHT22;8249;48.708;9.030;2023-06-14T01:34:51;12.30;99.90
16283;DHT22;8249;48.708;9.030;2023-06-14T01:37:19;12.30;99.90
16283;DHT22;8249;48.708;9.030;2023-06-14T01:39:47;12.30;99.90
16283;DHT22;8249;48.708;9.030;2023-06-14T01:42:20;12.20;99.90
16283;DHT22;8249;48.708;9.030;2023-06-14T01:44:47;12.20;99.90
16283;DHT22;8249;48.708;9.030;2023-06-14T01:47:15;12.20;99.90
16283;DHT22;8249;48.708;9.030;2023-06-14T01:49:42;12.20;99.90
16283;DHT22;8249;48.708;9.030;2023-06-14T01:52:09;12.10;99.90
16283;DHT22;8249;48.708;9.030;2023-06-14T01:54:36;12.00;99.90
16283;DHT22;8249;48.708;9.030;2023-06-14T01:57:08;12.00;99.90
16283;DHT22;8249;48.708;9.030;2023-06-14T01:59:38;11.90;99.90
16283;DHT22;8249;48.708;9.030;2023-06-14T02:02:05;11.80;99.90
16283;DHT22;8249;48.708;9.030;2023-06-14T02:04:32;11.80;99.90
16283;DHT22;8249;48.708;9.030;2023-06-14T02:06:59;11.80;99.90
16283;DHT22;8249;48.708;9.030;2023-06-14T02:09:26;11.80;99.90
16283;DHT22;8249;48.708;9.030;2023-06-14T02:11:54;11.70;99.90
16283;DHT22;8249;48.708;9.030;2023-06-14T02:14:21;11.70;99.90
16283;DHT22;8249;48.708;9.030;2023-06-14T02:16:50;11.70;99.90
16283;DHT22;8249;48.708;9.030;2023-06-14T02:19:19;11.70;99.90
16283;DHT22;8249;48.708;9.030;2023-06-14T02:21:47;11.60;99.90
16283;DHT22;8249;48.708;9.030;2023-06-14T02:24:14;11.60;99.90
16283;DHT22;8249;48.708;9.030;2023-06-14T02:26:41;11.60;99.90
16283;DHT22;8249;48.708;9.030;2023-06-14T02:29:08;11.60;99.90
16283;DHT22;8249;48.708;9.030;2023-06-14T02:31:38;11.70;99.90
16283;DHT22;8249;48.708;9.030;2023-06-14T02:34:06;11.70;99.90
16283;DHT22;8249;48.708;9.030;2023-06-14T02:36:34;11.70;99.90
16283;DHT22;8249;48.708;9.030;2023-06-14T02:39:07;11.60;99.90
16283;DHT22;8249;48.708;9.030;2023-06-14T02:41:34;11.60;99.90
16283;DHT22;8249;48.708;9.030;2023-06-14T02:44:01;11.50;99.90
16283;DHT22;8249;48.708;9.030;2023-06-14T02:46:28;11.50;99.90
16283;DHT22;8249;48.708;9.030;2023-06-14T02:48:55;11.50;99.90
16283;DHT22;8249;48.708;9.030;2023-06-14T02:51:23;11.50;99.90
16283;DHT22;8249;48.708;9.030;2023-06-14T02:53:51;11.50;99.90
16283;DHT22;8249;48.708;9.030;2023-06-14T02:56:18;11.50;99.90
16283;DHT22;8249;48.708;9.030;2023-06-14T02:58:46;11.50;99.90
16283;DHT22;8249;48.708;9.030;2023-06-14T03:01:15;11.40;99.90
16283;DHT22;8249;48.708;9.030;2023-06-14T03:03:42;11.40;99.90
16283;DHT22;8249;48.708;9.030;2023-06-14T03:06:09;11.50;99.90
16283;DHT22;8249;48.708;9.030;2023-06-14T03:08:40;11.40;99.90
16283;DHT22;8249;48.708;9.030;2023-06-14T03:11:12;11.40;99.90
16283;DHT22;8249;48.708;9.030;2023-06-14T03:13:39;11.30;99.90
16283;DHT22;8249;48.708;9.030;2023-06-14T03:16:07;11.20;99.90
16283;DHT22;8249;48.708;9.030;2023-06-14T03:18:37;11.10;99.90
16283;DHT22;8249;48.708;9.030;2023-06-14T03:21:05;11.00;99.90
16283;DHT22;8249;48.708;9.030;2023-06-14T03:23:32;10.90;99.90
16283;DHT22;8249;48.708;9.030;2023-06-14T03:26:03;10.90;99.90
16283;DHT22;8249;48.708;9.030;2023-06-14T03:28:30;10.90;99.90
16283;DHT22;8249;48.708;9.030;2023-06-14T03:30:58;10.80;99.90
16283;DHT22;8249;48.708;9.030;2023-06-14T03:33:27;10.80;99.90
16283;DHT22;8249;48.708;9.030;2023-06-14T03:35:54;10.70;99.90
16283;DHT22;8249;48.708;9.030;2023-06-14T03:38:21;10.70;99.90
16283;DHT22;8249;48.708;9.030;2023-06-14T03:40:49;10.70;99.90
16283;DHT22;8249;48.708;9.030;2023-06-14T03:43:18;10.60;99.90
16283;DHT22;8249;48.708;9.030;2023-06-14T03:45:44;10.70;99.90
16283;DHT22;8249;48.708;9.030;2023-06-14T03:48:12;10.70;99.90
16283;DHT22;8249;48.708;9.030;2023-06-14T03:50:39;10.80;99.90
16283;DHT22;8249;48.708;9.030;2023-06-14T03:53:06;10.80;99.90
16283;DHT22;8249;48.708;9.030;2023-06-14T03:55:33;10.80;99.90
16283;DHT22;8249;48.708;9.030;2023-06-14T03:58:00;10.80;99.90
16283;DHT22;8249;48.708;9.030;2023-06-14T04:00:29;10.80;99.90
16283;DHT22;8249;48.708;9.030;2023-06-14T04:02:56;10.80;99.90
16283;DHT22;8249;48.708;9.030;2023-06-14T04:05:24;10.80;99.90
16283;DHT22;8249;48.708;9.030;2023-06-14T04:07:52;10.80;99.90
16283;DHT22;8249;48.708;9.030;2023-06-14T04:10:21;10.80;99.90
16283;DHT22;8249;48.708;9.030;2023-06-14T04:12:48;10.80;99.90
16283;DHT22;8249;48.708;9.030;2023-06-14T04:15:17;10.80;99.90
16283;DHT22;8249;48.708;9.030;2023-06-14T04:17:45;10.90;99.90
16283;DHT22;8249;48.708;9.030;2023-06-14T04:20:12;11.00;99.90
16283;DHT22;8249;48.708;9.030;2023-06-14T04:22:40;11.10;99.90
16283;DHT22;8249;48.708;9.030;2023-06-14T04:25:08;11.10;99.90
16283;DHT22;8249;48.708;9.030;2023-06-14T04:27:36;11.20;99.90
16283;DHT22;8249;48.708;9.030;2023-06-14T04:30:05;11.30;99.90
16283;DHT22;8249;48.708;9.030;2023-06-14T04:32:37;11.30;99.90
16283;DHT22;8249;48.708;9.030;2023-06-14T04:35:08;11.40;99.90
16283;DHT22;8249;48.708;9.030;2023-06-14T04:37:38;11.40;99.90
16283;DHT22;8249;48.708;9.030;2023-06-14T04:40:10;11.50;99.90
16283;DHT22;8249;48.708;9.030;2023-06-14T04:42:38;11.70;99.90
16283;DHT22;8249;48.708;9.030;2023-06-14T04:45:08;11.70;99.90
16283;DHT22;8249;48.708;9.030;2023-06-14T04:47:37;11.70;99.90
16283;DHT22;8249;48.708;9.030;2023-06-14T04:50:08;11.80;99.90
16283;DHT22;8249;48.708;9.030;2023-06-14T04:52:35;12.00;99.90
16283;DHT22;8249;48.708;9.030;2023-06-14T04:55:05;12.10;99.90
16283;DHT22;8249;48.708;9.030;2023-06-14T04:57:32;12.20;99.90
16283;DHT22;8249;48.708;9.030;2023-06-14T05:00:01;12.40;99.90
16283;DHT22;8249;48.708;9.030;2023-06-14T05:02:30;12.50;99.90
16283;DHT22;8249;48.708;9.030;2023-06-14T05:04:58;12.60;99.90
16283;DHT22;8249;48.708;9.030;2023-06-14T05:07:29;12.60;99.90
16283;DHT22;8249;48.708;9.030;2023-06-14T05:09:56;12.90;99.90
16283;DHT22;8249;48.708;9.030;2023-06-14T05:12:23;12.90;99.90
16283;DHT22;8249;48.708;9.030;2023-06-14T05:14:50;13.10;99.90
16283;DHT22;8249;48.708;9.030;2023-06-14T05:17:20;13.20;99.90
16283;DHT22;8249;48.708;9.030;2023-06-14T05:19:46;13.30;99.90
16283;DHT22;8249;48.708;9.030;2023-06-14T05:22:14;13.40;99.90
16283;DHT22;8249;48.708;9.030;2023-06-14T05:24:42;13.50;99.90
16283;DHT22;8249;48.708;9.030;2023-06-14T05:27:09;13.70;99.90
16283;DHT22;8249;48.708;9.030;2023-06-14T05:29:36;13.80;99.90
16283;DHT22;8249;48.708;9.030;2023-06-14T05:32:03;13.90;99.90
16283;DHT22;8249;48.708;9.030;2023-06-14T05:34:31;14.10;99.90
16283;DHT22;8249;48.708;9.030;2023-06-14T05:36:57;14.20;99.90
16283;DHT22;8249;48.708;9.030;2023-06-14T05:39:24;14.40;99.90
16283;DHT22;8249;48.708;9.030;2023-06-14T05:41:53;14.50;99.90
16283;DHT22;8249;48.708;9.030;2023-06-14T05:44:19;14.70;99.90
16283;DHT22;8249;48.708;9.030;2023-06-14T05:46:46;14.80;99.90
16283;DHT22;8249;48.708;9.030;2023-06-14T05:49:13;15.00;99.90
16283;DHT22;8249;48.708;9.030;2023-06-14T05:51:40;15.20;99.90
16283;DHT22;8249;48.708;9.030;2023-06-14T05:54:07;15.60;99.90
16283;DHT22;8249;48.708;9.030;2023-06-14T05:56:34;15.80;99.90
16283;DHT22;8249;48.708;9.030;2023-06-14T05:59:03;16.00;99.90
16283;DHT22;8249;48.708;9.030;2023-06-14T06:01:29;16.30;99.90
16283;DHT22;8249;48.708;9.030;2023-06-14T06:03:59;16.60;99.90
16283;DHT22;8249;48.708;9.030;2023-06-14T06:06:26;16.80;99.90
16283;DHT22;8249;48.708;9.030;2023-06-14T06:08:53;17.00;99.90
16283;DHT22;8249;48.708;9.030;2023-06-14T06:11:20;17.20;99.90
16283;DHT22;8249;48.708;9.030;2023-06-14T06:13:46;17.40;99.90
16283;DHT22;8249;48.708;9.030;2023-06-14T06:16:15;17.50;99.90
16283;DHT22;8249;48.708;9.030;2023-06-14T06:18:42;17.70;99.00
16283;DHT22;8249;48.708;9.030;2023-06-14T06:21:09;17.90;98.70
16283;DHT22;8249;48.708;9.030;2023-06-14T06:23:35;18.00;98.30
16283;DHT22;8249;48.708;9.030;2023-06-14T06:26:03;18.10;96.90
16283;DHT22;8249;48.708;9.030;2023-06-14T06:28:30;18.20;96.20
16283;DHT22;8249;48.708;9.030;2023-06-14T06:30:57;18.40;96.80
16283;DHT22;8249;48.708;9.030;2023-06-14T06:33:25;18.50;95.60
16283;DHT22;8249;48.708;9.030;2023-06-14T06:35:52;18.50;94.10
16283;DHT22;8249;48.708;9.030;2023-06-14T06:38:19;18.60;94.70
16283;DHT22;8249;48.708;9.030;2023-06-14T06:40:46;18.70;95.60
16283;DHT22;8249;48.708;9.030;2023-06-14T06:43:13;18.90;95.00
16283;DHT22;8249;48.708;9.030;2023-06-14T06:45:45;19.00;94.20
16283;DHT22;8249;48.708;9.030;2023-06-14T06:48:12;19.10;94.50
16283;DHT22;8249;48.708;9.030;2023-06-14T06:50:40;19.20;93.50
16283;DHT22;8249;48.708;9.030;2023-06-14T06:53:07;19.30;94.10
16283;DHT22;8249;48.708;9.030;2023-06-14T06:55:34;19.40;94.00
16283;DHT22;8249;48.708;9.030;2023-06-14T06:58:01;19.50;94.10
16283;DHT22;8249;48.708;9.030;2023-06-14T07:00:30;19.60;93.70
16283;DHT22;8249;48.708;9.030;2023-06-14T07:02:57;19.70;93.70
16283;DHT22;8249;48.708;9.030;2023-06-14T07:05:24;19.90;93.80
16283;DHT22;8249;48.708;9.030;2023-06-14T07:07:53;19.80;92.40
16283;DHT22;8249;48.708;9.030;2023-06-14T07:10:20;19.90;93.30
16283;DHT22;8249;48.708;9.030;2023-06-14T07:12:47;20.00;93.50
16283;DHT22;8249;48.708;9.030;2023-06-14T07:15:13;20.20;93.20
16283;DHT22;8249;48.708;9.030;2023-06-14T07:17:40;20.30;93.30
16283;DHT22;8249;48.708;9.030;2023-06-14T07:20:09;20.40;93.10
16283;DHT22;8249;48.708;9.030;2023-06-14T07:22:38;20.60;93.20
16283;DHT22;8249;48.708;9.030;2023-06-14T07:25:08;20.50;90.70
16283;DHT22;8249;48.708;9.030;2023-06-14T07:27:35;20.60;91.30
16283;DHT22;8249;48.708;9.030;2023-06-14T07:30:02;20.60;90.60
16283;DHT22;8249;48.708;9.030;2023-06-14T07:32:29;20.50;91.60
16283;DHT22;8249;48.708;9.030;2023-06-14T07:34:56;20.70;91.70
16283;DHT22;8249;48.708;9.030;2023-06-14T07:37:23;20.90;91.90
16283;DHT22;8249;48.708;9.030;2023-06-14T07:39:50;21.00;91.40
16283;DHT22;8249;48.708;9.030;2023-06-14T07:42:18;21.10;90.50
16283;DHT22;8249;48.708;9.030;2023-06-14T07:44:45;21.20;90.40
16283;DHT22;8249;48.708;9.030;2023-06-14T07:47:12;21.20;90.10
16283;DHT22;8249;48.708;9.030;2023-06-14T07:49:39;21.20;90.50
16283;DHT22;8249;48.708;9.030;2023-06-14T07:52:06;21.30;90.80
16283;DHT22;8249;48.708;9.030;2023-06-14T07:54:34;21.50;90.90
16283;DHT22;8249;48.708;9.030;2023-06-14T07:57:01;21.60;90.60
16283;DHT22;8249;48.708;9.030;2023-06-14T07:59:30;21.70;90.50
16283;DHT22;8249;48.708;9.030;2023-06-14T08:01:56;21.80;91.20
16283;DHT22;8249;48.708;9.030;2023-06-14T08:04:23;21.80;91.00
16283;DHT22;8249;48.708;9.030;2023-06-14T08:06:50;21.80;90.20
16283;DHT22;8249;48.708;9.030;2023-06-14T08:09:17;21.80;90.90
16283;DHT22;8249;48.708;9.030;2023-06-14T08:11:44;22.00;90.80
16283;DHT22;8249;48.708;9.030;2023-06-14T08:14:11;22.10;90.90
16283;DHT22;8249;48.708;9.030;2023-06-14T08:16:39;22.20;91.10
16283;DHT22;8249;48.708;9.030;2023-06-14T08:19:06;22.20;90.10
16283;DHT22;8249;48.708;9.030;2023-06-14T08:21:33;22.20;89.60
16283;DHT22;8249;48.708;9.030;2023-06-14T08:24:02;22.40;90.20
16283;DHT22;8249;48.708;9.030;2023-06-14T08:26:29;22.40;90.70
16283;DHT22;8249;48.708;9.030;2023-06-14T08:28:57;22.50;90.10
16283;DHT22;8249;48.708;9.030;2023-06-14T08:31:24;22.70;90.40
16283;DHT22;8249;48.708;9.030;2023-06-14T08:33:54;22.90;89.30
16283;DHT22;8249;48.708;9.030;2023-06-14T08:36:21;22.90;88.40
16283;DHT22;8249;48.708;9.030;2023-06-14T08:38:48;23.00;88.50
16283;DHT22;8249;48.708;9.030;2023-06-14T08:41:20;23.10;88.20
16283;DHT22;8249;48.708;9.030;2023-06-14T08:43:48;23.20;86.70
16283;DHT22;8249;48.708;9.030;2023-06-14T08:46:17;23.30;87.60
16283;DHT22;8249;48.708;9.030;2023-06-14T08:48:46;23.20;83.70
16283;DHT22;8249;48.708;9.030;2023-06-14T08:51:18;23.10;83.40
16283;DHT22;8249;48.708;9.030;2023-06-14T08:53:46;23.20;84.40
16283;DHT22;8249;48.708;9.030;2023-06-14T08:56:16;23.10;84.00
16283;DHT22;8249;48.708;9.030;2023-06-14T08:58:44;23.10;84.20
16283;DHT22;8249;48.708;9.030;2023-06-14T09:01:11;23.40;85.20
16283;DHT22;8249;48.708;9.030;2023-06-14T09:03:40;23.60;83.70
16283;DHT22;8249;48.708;9.030;2023-06-14T09:06:08;23.60;82.10
16283;DHT22;8249;48.708;9.030;2023-06-14T09:08:42;23.70;83.00
16283;DHT22;8249;48.708;9.030;2023-06-14T09:11:11;23.90;83.70
16283;DHT22;8249;48.708;9.030;2023-06-14T09:13:39;24.00;83.90
16283;DHT22;8249;48.708;9.030;2023-06-14T09:16:06;24.10;83.80
16283;DHT22;8249;48.708;9.030;2023-06-14T09:18:37;24.30;82.60
16283;DHT22;8249;48.708;9.030;2023-06-14T09:21:06;24.50;83.50
16283;DHT22;8249;48.708;9.030;2023-06-14T09:23:36;24.60;82.20
16283;DHT22;8249;48.708;9.030;2023-06-14T09:26:08;24.60;83.70
16283;DHT22;8249;48.708;9.030;2023-06-14T09:28:35;25.00;81.70
16283;DHT22;8249;48.708;9.030;2023-06-14T09:31:02;25.10;81.90
16283;DHT22;8249;48.708;9.030;2023-06-14T09:33:31;25.30;80.50
16283;DHT22;8249;48.708;9.030;2023-06-14T09:35:58;25.20;79.70
16283;DHT22;8249;48.708;9.030;2023-06-14T09:38:25;25.30;80.70
16283;DHT22;8249;48.708;9.030;2023-06-14T09:40:54;25.30;79.40
16283;DHT22;8249;48.708;9.030;2023-06-14T09:43:23;25.60;79.30
16283;DHT22;8249;48.708;9.030;2023-06-14T09:45:54;25.80;78.90
16283;DHT22;8249;48.708;9.030;2023-06-14T09:48:21;25.80;77.00
16283;DHT22;8249;48.708;9.030;2023-06-14T09:50:50;25.80;76.80
16283;DHT22;8249;48.708;9.030;2023-06-14T09:53:21;25.90;78.60
16283;DHT22;8249;48.708;9.030;2023-06-14T09:55:49;26.10;77.60
16283;DHT22;8249;48.708;9.030;2023-06-14T09:58:20;26.30;76.00
16283;DHT22;8249;48.708;9.030;2023-06-14T10:00:51;26.40;76.40
16283;DHT22;8249;48.708;9.030;2023-06-14T10:03:24;26.80;76.80
16283;DHT22;8249;48.708;9.030;2023-06-14T10:05:52;26.60;72.40
16283;DHT22;8249;48.708;9.030;2023-06-14T10:08:24;26.40;75.40
16283;DHT22;8249;48.708;9.030;2023-06-14T10:10:53;26.60;74.30
16283;DHT22;8249;48.708;9.030;2023-06-14T10:13:22;26.80;73.70
16283;DHT22;8249;48.708;9.030;2023-06-14T10:15:58;27.00;74.50
16283;DHT22;8249;48.708;9.030;2023-06-14T10:18:32;27.30;73.20
16283;DHT22;8249;48.708;9.030;2023-06-14T10:21:08;27.70;74.00
16283;DHT22;8249;48.708;9.030;2023-06-14T10:23:41;27.90;73.30
16283;DHT22;8249;48.708;9.030;2023-06-14T10:26:18;27.90;71.50
16283;DHT22;8249;48.708;9.030;2023-06-14T10:28:56;27.90;71.70
16283;DHT22;8249;48.708;9.030;2023-06-14T10:31:40;27.90;70.30
16283;DHT22;8249;48.708;9.030;2023-06-14T10:34:07;28.20;69.10
16283;DHT22;8249;48.708;9.030;2023-06-14T10:36:34;28.50;69.50
16283;DHT22;8249;48.708;9.030;2023-06-14T10:39:06;28.50;68.30
16283;DHT22;8249;48.708;9.030;2023-06-14T10:41:36;28.20;68.30
16283;DHT22;8249;48.708;9.030;2023-06-14T10:44:32;28.20;68.30
16283;DHT22;8249;48.708;9.030;2023-06-14T10:47:01;28.40;69.90
16283;DHT22;8249;48.708;9.030;2023-06-14T10:49:37;28.50;69.60
16283;DHT22;8249;48.708;9.030;2023-06-14T10:52:08;28.90;69.50
16283;DHT22;8249;48.708;9.030;2023-06-14T10:54:37;29.10;71.60
16283;DHT22;8249;48.708;9.030;2023-06-14T10:57:06;29.10;69.20
16283;DHT22;8249;48.708;9.030;2023-06-14T10:59:34;29.00;64.70
16283;DHT22;8249;48.708;9.030;2023-06-14T11:02:27;28.60;67.40
16283;DHT22;8249;48.708;9.030;2023-06-14T11:05:04;29.10;68.40
16283;DHT22;8249;48.708;9.030;2023-06-14T11:07:42;29.50;66.40
16283;DHT22;8249;48.708;9.030;2023-06-14T11:10:23;29.70;64.80
16283;DHT22;8249;48.708;9.030;2023-06-14T11:12:55;29.70;63.60
16283;DHT22;8249;48.708;9.030;2023-06-14T11:15:28;29.90;64.70
16283;DHT22;8249;48.708;9.030;2023-06-14T11:17:56;28.80;61.80
16283;DHT22;8249;48.708;9.030;2023-06-14T11:20:25;29.00;65.70
16283;DHT22;8249;48.708;9.030;2023-06-14T11:22:53;28.90;65.60
16283;DHT22;8249;48.708;9.030;2023-06-14T11:25:20;28.20;65.50
16283;DHT22;8249;48.708;9.030;2023-06-14T11:27:49;27.60;66.10
16283;DHT22;8249;48.708;9.030;2023-06-14T11:30:17;27.50;67.80
16283;DHT22;8249;48.708;9.030;2023-06-14T11:32:46;27.10;68.30
16283;DHT22;8249;48.708;9.030;2023-06-14T11:35:15;26.90;67.80
16283;DHT22;8249;48.708;9.030;2023-06-14T11:37:43;26.60;68.00
16283;DHT22;8249;48.708;9.030;2023-06-14T11:40:11;26.30;69.90
16283;DHT22;8249;48.708;9.030;2023-06-14T11:42:41;26.10;69.40
16283;DHT22;8249;48.708;9.030;2023-06-14T11:45:09;26.70;69.30
16283;DHT22;8249;48.708;9.030;2023-06-14T11:47:37;27.40;67.70
16283;DHT22;8249;48.708;9.030;2023-06-14T11:50:05;28.00;67.30
16283;DHT22;8249;48.708;9.030;2023-06-14T11:52:36;28.20;68.50
16283;DHT22;8249;48.708;9.030;2023-06-14T11:55:04;28.10;66.70
16283;DHT22;8249;48.708;9.030;2023-06-14T11:57:34;27.60;67.70
16283;DHT22;8249;48.708;9.030;2023-06-14T12:00:03;27.90;67.90
16283;DHT22;8249;48.708;9.030;2023-06-14T12:02:37;28.70;67.50
16283;DHT22;8249;48.708;9.030;2023-06-14T12:05:07;29.10;66.50
16283;DHT22;8249;48.708;9.030;2023-06-14T12:07:37;29.30;66.00
16283;DHT22;8249;48.708;9.030;2023-06-14T12:10:07;29.70;65.90
16283;DHT22;8249;48.708;9.030;2023-06-14T12:12:36;29.90;66.10
16283;DHT22;8249;48.708;9.030;2023-06-14T12:15:03;30.00;63.50
16283;DHT22;8249;48.708;9.030;2023-06-14T12:17:32;29.70;63.10
16283;DHT22;8249;48.708;9.030;2023-06-14T12:20:05;29.60;64.90
16283;DHT22;8249;48.708;9.030;2023-06-14T12:22:37;29.20;63.90
16283;DHT22;8249;48.708;9.030;2023-06-14T12:25:05;29.40;63.50
16283;DHT22;8249;48.708;9.030;2023-06-14T12:27:34;29.50;64.00
16283;DHT22;8249;48.708;9.030;2023-06-14T12:30:03;29.30;64.50
16283;DHT22;8249;48.708;9.030;2023-06-14T12:32:30;29.60;63.10
16283;DHT22;8249;48.708;9.030;2023-06-14T12:34:57;29.70;63.10
16283;DHT22;8249;48.708;9.030;2023-06-14T12:37:24;30.10;62.90
16283;DHT22;8249;48.708;9.030;2023-06-14T12:39:53;29.90;62.30
16283;DHT22;8249;48.708;9.030;2023-06-14T12:42:19;29.70;61.50
16283;DHT22;8249;48.708;9.030;2023-06-14T12:44:46;29.70;63.60
16283;DHT22;8249;48.708;9.030;2023-06-14T12:47:13;30.00;63.90
16283;DHT22;8249;48.708;9.030;2023-06-14T12:49:40;29.80;63.00
16283;DHT22;8249;48.708;9.030;2023-06-14T12:52:08;30.00;62.00
16283;DHT22;8249;48.708;9.030;2023-06-14T12:54:35;30.20;62.50
16283;DHT22;8249;48.708;9.030;2023-06-14T12:57:04;30.40;62.60
16283;DHT22;8249;48.708;9.030;2023-06-14T12:59:31;30.30;63.10
16283;DHT22;8249;48.708;9.030;2023-06-14T13:02:09;30.30;62.20
16283;DHT22;8249;48.708;9.030;2023-06-14T13:04:37;30.30;63.50
16283;DHT22;8249;48.708;9.030;2023-06-14T13:07:05;30.60;61.60
16283;DHT22;8249;48.708;9.030;2023-06-14T13:09:33;30.30;59.60
16283;DHT22;8249;48.708;9.030;2023-06-14T13:12:00;29.10;60.80
16283;DHT22;8249;48.708;9.030;2023-06-14T13:14:29;28.50;63.10
16283;DHT22;8249;48.708;9.030;2023-06-14T13:16:56;29.10;64.30
16283;DHT22;8249;48.708;9.030;2023-06-14T13:19:23;29.10;62.00
16283;DHT22;8249;48.708;9.030;2023-06-14T13:21:49;28.60;62.20
16283;DHT22;8249;48.708;9.030;2023-06-14T13:24:16;28.40;63.40
16283;DHT22;8249;48.708;9.030;2023-06-14T13:26:44;28.60;62.90
16283;DHT22;8249;48.708;9.030;2023-06-14T13:29:11;29.00;62.90
16283;DHT22;8249;48.708;9.030;2023-06-14T13:31:39;29.00;62.30
16283;DHT22;8249;48.708;9.030;2023-06-14T13:34:06;28.40;61.40
16283;DHT22;8249;48.708;9.030;2023-06-14T13:36:33;28.40;61.60
16283;DHT22;8249;48.708;9.030;2023-06-14T13:39:00;28.30;62.40
16283;DHT22;8249;48.708;9.030;2023-06-14T13:41:28;28.90;63.40
16283;DHT22;8249;48.708;9.030;2023-06-14T13:43:57;29.30;62.70
16283;DHT22;8249;48.708;9.030;2023-06-14T13:46:25;29.40;62.10
16283;DHT22;8249;48.708;9.030;2023-06-14T13:48:53;29.70;63.60
16283;DHT22;8249;48.708;9.030;2023-06-14T13:51:20;29.60;60.70
16283;DHT22;8249;48.708;9.030;2023-06-14T13:53:47;29.40;62.80
16283;DHT22;8249;48.708;9.030;2023-06-14T13:56:17;29.30;61.20
16283;DHT22;8249;48.708;9.030;2023-06-14T13:58:44;28.70;61.20
16283;DHT22;8249;48.708;9.030;2023-06-14T14:01:11;28.20;62.30
16283;DHT22;8249;48.708;9.030;2023-06-14T14:03:38;28.10;62.20
16283;DHT22;8249;48.708;9.030;2023-06-14T14:06:07;28.10;62.70
16283;DHT22;8249;48.708;9.030;2023-06-14T14:08:35;28.50;62.60
16283;DHT22;8249;48.708;9.030;2023-06-14T14:11:02;28.90;61.40
16283;DHT22;8249;48.708;9.030;2023-06-14T14:13:29;29.00;62.70
16283;DHT22;8249;48.708;9.030;2023-06-14T14:15:56;28.90;62.10
16283;DHT22;8249;48.708;9.030;2023-06-14T14:18:24;29.20;62.90
16283;DHT22;8249;48.708;9.030;2023-06-14T14:20:51;29.30;61.40
16283;DHT22;8249;48.708;9.030;2023-06-14T14:23:19;29.60;62.90
16283;DHT22;8249;48.708;9.030;2023-06-14T14:25:47;29.70;62.90
16283;DHT22;8249;48.708;9.030;2023-06-14T14:28:14;29.60;61.70
16283;DHT22;8249;48.708;9.030;2023-06-14T14:30:44;29.60;61.80
16283;DHT22;8249;48.708;9.030;2023-06-14T14:33:12;29.40;61.50
16283;DHT22;8249;48.708;9.030;2023-06-14T14:35:41;29.70;61.70
16283;DHT22;8249;48.708;9.030;2023-06-14T14:38:08;29.60;62.10
16283;DHT22;8249;48.708;9.030;2023-06-14T14:40:37;29.50;60.20
16283;DHT22;8249;48.708;9.030;2023-06-14T14:43:04;29.30;60.30
16283;DHT22;8249;48.708;9.030;2023-06-14T14:45:31;28.80;60.30
16283;DHT22;8249;48.708;9.030;2023-06-14T14:47:59;29.00;61.40
16283;DHT22;8249;48.708;9.030;2023-06-14T14:50:26;28.90;61.40
16283;DHT22;8249;48.708;9.030;2023-06-14T14:52:53;29.00;61.00
16283;DHT22;8249;48.708;9.030;2023-06-14T14:55:20;28.60;61.20
16283;DHT22;8249;48.708;9.030;2023-06-14T14:57:48;27.80;61.80
16283;DHT22;8249;48.708;9.030;2023-06-14T15:00:16;27.40;63.20
16283;DHT22;8249;48.708;9.030;2023-06-14T15:02:43;27.60;63.80
16283;DHT22;8249;48.708;9.030;2023-06-14T15:05:10;27.60;63.90
16283;DHT22;8249;48.708;9.030;2023-06-14T15:07:37;27.50;64.20
16283;DHT22;8249;48.708;9.030;2023-06-14T15:10:07;26.90;64.40
16283;DHT22;8249;48.708;9.030;2023-06-14T15:12:34;26.50;65.70
16283;DHT22;8249;48.708;9.030;2023-06-14T15:15:04;26.70;67.70
16283;DHT22;8249;48.708;9.030;2023-06-14T15:17:31;26.90;65.80
16283;DHT22;8249;48.708;9.030;2023-06-14T15:19:58;27.00;64.20
16283;DHT22;8249;48.708;9.030;2023-06-14T15:22:25;27.10;64.60
16283;DHT22;8249;48.708;9.030;2023-06-14T15:24:52;27.20;65.40
16283;DHT22;8249;48.708;9.030;2023-06-14T15:27:18;27.20;66.10
16283;DHT22;8249;48.708;9.030;2023-06-14T15:29:46;27.20;69.20
16283;DHT22;8249;48.708;9.030;2023-06-14T15:32:14;26.90;67.50
16283;DHT22;8249;48.708;9.030;2023-06-14T15:34:41;26.90;67.80
16283;DHT22;8249;48.708;9.030;2023-06-14T15:37:08;26.90;66.60
16283;DHT22;8249;48.708;9.030;2023-06-14T15:39:35;26.90;67.80
16283;DHT22;8249;48.708;9.030;2023-06-14T15:42:03;26.80;65.30
16283;DHT22;8249;48.708;9.030;2023-06-14T15:44:31;26.70;66.70
16283;DHT22;8249;48.708;9.030;2023-06-14T15:46:58;26.70;66.70
16283;DHT22;8249;48.708;9.030;2023-06-14T15:49:27;26.40;66.80
16283;DHT22;8249;48.708;9.030;2023-06-14T15:51:55;26.30;67.20